createdAt,value
2019-04-27T09:44:21.000Z,3.7
2019-04-27T09:47:43.000Z,3.5
2019-04-27T09:51:05.000Z,4.2
2019-04-27T09:54:28.000Z,3.9
2019-04-27T09:57:51.000Z,4
2019-04-27T10:01:13.000Z,4.4
2019-04-27T10:04:35.000Z,4
2019-04-27T10:07:58.000Z,4.5
2019-04-27T10:11:22.000Z,3.8
2019-04-27T10:14:44.000Z,4.4
2019-04-27T10:18:05.000Z,4.4
2019-04-27T10:21:29.000Z,4.4
2019-04-27T10:24:51.000Z,4
2019-04-27T10:28:13.000Z,4.3
2019-04-27T10:31:36.000Z,4.2
2019-04-27T10:35:00.000Z,4.1
2019-04-27T10:38:22.000Z,4.6
2019-04-27T10:41:44.000Z,4.8
2019-04-27T10:45:08.000Z,4
2019-04-27T10:48:30.000Z,3.9
2019-04-27T10:51:52.000Z,3.9
2019-04-27T10:55:14.000Z,3.5
2019-04-27T10:58:35.000Z,3.5
2019-04-27T11:01:59.000Z,3.9
2019-04-27T11:05:21.000Z,3.6
2019-04-27T11:08:45.000Z,3.8
2019-04-27T11:12:08.000Z,4.4
2019-04-27T11:15:30.000Z,4.2
2019-04-27T11:18:52.000Z,4.3
2019-04-27T11:22:14.000Z,4.3
2019-04-27T11:25:38.000Z,4.4
2019-04-27T11:29:01.000Z,4.3
2019-04-27T11:32:23.000Z,4.4
2019-04-27T11:35:45.000Z,4.7
2019-04-27T11:39:07.000Z,4.4
2019-04-27T11:42:32.000Z,4.7
2019-04-27T11:45:54.000Z,4
2019-04-27T11:49:16.000Z,4.3
2019-04-27T11:52:40.000Z,4.1
2019-04-27T11:56:02.000Z,4.3
2019-04-27T11:59:24.000Z,4.5
2019-04-27T12:02:46.000Z,4.5
2019-04-27T12:06:08.000Z,4.4
2019-04-27T12:09:30.000Z,4.7
2019-04-27T12:12:52.000Z,4.6
2019-04-27T12:16:16.000Z,4.5
2019-04-27T12:19:38.000Z,4.4
2019-04-27T12:23:00.000Z,4.9
2019-04-27T12:26:23.000Z,4.8
2019-04-27T12:29:46.000Z,4.6
2019-04-27T12:33:10.000Z,4.3
2019-04-27T12:36:32.000Z,4.5
2019-04-27T12:39:54.000Z,4.3
2019-04-27T12:43:16.000Z,4
2019-04-27T12:46:38.000Z,4.2
2019-04-27T12:50:00.000Z,4.2
2019-04-27T12:53:22.000Z,5.1
2019-04-27T12:56:44.000Z,4.7
2019-04-27T13:00:06.000Z,4.7
2019-04-27T13:03:29.000Z,5
2019-04-27T13:06:51.000Z,5.1
2019-04-27T13:10:14.000Z,4.7
2019-04-27T13:13:38.000Z,4.3
2019-04-27T13:17:00.000Z,4.5
2019-04-27T13:20:22.000Z,4.5
2019-04-27T13:23:44.000Z,4
2019-04-27T13:27:18.000Z,4.7
2019-04-27T13:30:41.000Z,4
2019-04-27T13:34:04.000Z,4.4
2019-04-27T13:37:27.000Z,4.1
2019-04-27T13:40:53.000Z,3.6
2019-04-27T13:44:14.000Z,3.7
2019-04-27T13:47:39.000Z,3.2
2019-04-27T13:51:00.000Z,3.5
2019-04-27T13:54:22.000Z,3.4
2019-04-27T13:57:49.000Z,3.7
2019-04-27T14:01:11.000Z,3.4
2019-04-27T14:04:33.000Z,2.8
2019-04-27T14:08:06.000Z,2.5
2019-04-27T14:11:28.000Z,2.5
2019-04-27T14:14:51.000Z,2.5
2019-04-27T14:18:13.000Z,2.3
2019-04-27T14:21:35.000Z,2.2
2019-04-27T14:24:57.000Z,2.3
2019-04-27T14:28:20.000Z,2.2
2019-04-27T14:31:45.000Z,2.3
2019-04-27T14:35:07.000Z,0.7
2019-04-27T14:38:32.000Z,0.6
2019-04-27T14:41:54.000Z,0.5
2019-04-27T14:45:17.000Z,0.5
2019-04-27T14:48:41.000Z,0.4
2019-04-27T14:52:03.000Z,0.6
2019-04-27T14:55:25.000Z,0.4
2019-04-27T14:58:47.000Z,0.5
2019-04-27T15:02:11.000Z,0.8
2019-04-27T15:05:33.000Z,0.7
2019-04-27T15:08:57.000Z,0.7
2019-04-27T15:12:26.000Z,0.8
2019-04-27T15:15:52.000Z,0.8
2019-04-27T15:19:22.000Z,0.8
2019-04-27T15:22:44.000Z,0.7
2019-04-27T15:26:13.000Z,0.9
2019-04-27T15:29:40.000Z,0.9
2019-04-27T15:33:16.000Z,0.8
2019-04-27T15:36:37.000Z,0.8
2019-04-27T15:40:06.000Z,0.9
2019-04-27T15:43:28.000Z,0.9
2019-04-27T15:46:50.000Z,2.3
2019-04-27T15:50:12.000Z,2
2019-04-27T15:53:46.000Z,1.3
2019-04-27T15:57:25.000Z,1.1
2019-04-27T16:00:52.000Z,1.1
2019-04-27T16:04:18.000Z,1.2
2019-04-27T16:07:40.000Z,1.8
2019-04-27T16:14:39.000Z,1.5
2019-04-27T16:18:02.000Z,1.3
2019-04-27T16:21:24.000Z,1.2
2019-04-27T19:18:00.000Z,2.1
2019-04-27T19:21:50.000Z,2
2019-04-27T19:25:14.000Z,1.6
2019-04-27T19:28:38.000Z,1.6
2019-04-27T19:32:02.000Z,1.6
2019-04-27T19:35:24.000Z,1.7
2019-04-27T19:38:47.000Z,1.6
2019-04-27T19:42:12.000Z,1.5
2019-04-27T19:45:37.000Z,1.4
2019-04-27T19:49:00.000Z,1.5
2019-04-27T19:52:24.000Z,1.6
2019-04-27T19:55:47.000Z,1.6
2019-04-27T19:59:30.000Z,1.7
2019-04-27T20:11:01.000Z,1.8
2019-04-27T20:13:47.000Z,1.7
2019-04-27T20:17:10.000Z,1.7
2019-04-27T20:20:39.000Z,1.6
2019-04-27T20:45:23.000Z,1.8
2019-04-27T20:46:35.000Z,1.8
2019-04-27T20:49:58.000Z,1.8
2019-04-27T20:53:21.000Z,1.7
2019-04-27T20:57:15.000Z,1.8
2019-04-27T21:00:38.000Z,1.9
2019-04-27T21:04:01.000Z,1.7
2019-04-27T21:07:26.000Z,1.9
2019-04-27T21:10:49.000Z,2.1
2019-04-27T21:14:16.000Z,2
2019-04-27T21:17:39.000Z,2.1
2019-04-27T21:21:05.000Z,2.4
2019-04-27T21:28:40.000Z,3.1
2019-04-27T21:32:04.000Z,2.9
2019-04-27T21:35:28.000Z,3.2
2019-04-27T21:38:53.000Z,3
2019-04-27T21:42:17.000Z,2.7
2019-04-27T21:45:41.000Z,3.1
2019-04-27T21:49:06.000Z,2.7
2019-04-27T21:52:29.000Z,2.9
2019-04-27T21:55:52.000Z,3.9
2019-04-27T21:59:16.000Z,3.3
2019-04-27T22:02:41.000Z,2.6
2019-04-27T22:06:07.000Z,3.9
2019-04-27T22:09:31.000Z,2.9
2019-04-27T22:12:56.000Z,2.7
2019-04-27T22:16:18.000Z,3.1
2019-04-27T22:19:42.000Z,2.4
2019-04-27T22:23:07.000Z,2.9
2019-04-27T22:26:30.000Z,3
2019-04-27T22:29:55.000Z,2.6
2019-04-27T22:33:19.000Z,2.9
2019-04-27T22:36:44.000Z,2.8
2019-04-27T22:40:12.000Z,2.8
2019-04-27T22:43:38.000Z,2.7
2019-04-27T22:47:03.000Z,3.3
2019-04-27T22:50:30.000Z,3.4
2019-04-27T22:53:55.000Z,3.3
2019-04-27T22:57:20.000Z,3.3
2019-04-27T23:00:55.000Z,3.5
2019-04-27T23:04:23.000Z,3.6
2019-04-27T23:07:58.000Z,3.3
2019-04-27T23:11:25.000Z,3.4
2019-04-27T23:14:51.000Z,3.6
2019-04-27T23:18:20.000Z,3.6
2019-04-27T23:21:45.000Z,3.3
2019-04-27T23:25:15.000Z,3.4
2019-04-27T23:28:41.000Z,3.7
2019-04-27T23:32:06.000Z,3.1
2019-04-27T23:35:34.000Z,3
2019-04-27T23:39:03.000Z,3.2
2019-04-27T23:42:35.000Z,2.8
2019-04-27T23:46:06.000Z,2.8
2019-04-27T23:49:33.000Z,2.9
2019-04-27T23:52:59.000Z,2.8
2019-04-27T23:56:23.000Z,2.3
2019-04-27T23:59:52.000Z,3
